Thunder radar more information blitzortung!


Radar de pluja more information rain snow radar


Visita la nostra xarxa de llocs de meteo:

Template documentation
and downloads

And another site



No particular awareness of the weather is required.    There are no Weather-warnings

Pagina Historial Weather Underground text

Diari Resum Juliol 16, 2017 Unitats:  Imperial    Mètric   Tant
« Previous Dia
SegĂźent Dia »
Diari Setmana Mensual Anual Personalitzada
  Maxima: Minima: Media:
Temperatura: TemperatureC °F 21.9 °F 25.5 °F
Punt de rosada: DewpointC °F 15.5 °F 16.6 °F
Humitat: Humidity % 46 % 58 %
Wind Speed: WindSpeedKMH mph 0.0 mph 4.4 mph
RĂ fegues de vent: WindSpeedGustKMH mph - -
Vent:- - SSW
Pression baro: PressurehPa in 1015.8 in -
Precipitacions: 0.0 in    
Historical Graphs
 
 
Dades de taula per Juliol 16, 2017
Temps Temperatura Punt de rosada Pression baro Vent Wind Speed RĂ fegues de vent Humitat Rainfall Rate (Hourly)
TemperatureC °F DewpointC °F PressurehPa in Calm     Humidity % HourlyPrecipMM in
00:00 24.2 °F 18.4 °F 1016.8 in SW 4.7 mph 4.7 mph 70 % 0.0 in
00:05 24.1 °F 18.3 °F 1016.8 in SW 5.6 mph 5.6 mph 70 % 0.0 in
11:00 32.8 °F 21.3 °F 1017.8 in South 9.7 mph 17.7 mph 51 % 0.0 in
11:10 32.5 °F 20.7 °F 1017.8 in SSW 3.2 mph 6.4 mph 50 % 0.0 in
11:20 32.8 °F 20.7 °F 1017.8 in SSW 4.8 mph 9.7 mph 49 % 0.0 in
11:30 32.3 °F 19.9 °F 1016.8 in SW 4.8 mph 6.4 mph 48 % 0.0 in
11:40 32.4 °F 20.0 °F 1017.8 in SW 4.8 mph 12.9 mph 48 % 0.0 in
11:50 32.8 °F 20.3 °F 1017.8 in SW 4.8 mph 9.7 mph 48 % 0.0 in
12:00 32.8 °F 20.3 °F 1017.8 in SW 4.8 mph 9.7 mph 48 % 0.0 in
12:10 32.5 °F 19.7 °F 1016.8 in SW 9.7 mph 12.9 mph 47 % 0.0 in
12:20 32.1 °F 19.4 °F 1016.8 in SW 4.8 mph 16.1 mph 47 % 0.0 in
12:30 32.5 °F 19.7 °F 1016.8 in SW 3.2 mph 9.7 mph 47 % 0.0 in
12:40 32.1 °F 19.0 °F 1016.8 in WSW 4.8 mph 4.8 mph 46 % 0.0 in
12:50 31.5 °F 18.8 °F 1016.8 in SW 8.0 mph 12.9 mph 47 % 0.0 in
13:00 31.2 °F 18.6 °F 1015.8 in SSW 3.2 mph 12.9 mph 47 % 0.0 in
13:10 31.0 °F 18.0 °F 1015.8 in SW 4.8 mph 11.3 mph 46 % 0.0 in
13:20 30.8 °F 18.2 °F 1015.8 in SW 4.8 mph 8.0 mph 47 % 0.0 in
13:30 30.3 °F 17.7 °F 1015.8 in SW 8.0 mph 12.9 mph 47 % 0.0 in
13:50 30.2 °F 17.3 °F 1015.8 in SW 3.2 mph 6.4 mph 46 % 0.0 in
14:00 30.0 °F 17.4 °F 1015.8 in SSW 3.2 mph 4.8 mph 47 % 0.0 in
14:10 29.7 °F 17.2 °F 1015.8 in SE 3.2 mph 4.8 mph 47 % 0.0 in
14:20 28.8 °F 17.0 °F 1015.8 in SE 4.8 mph 6.4 mph 49 % 0.0 in
14:30 28.4 °F 16.7 °F 1015.8 in SSE 3.2 mph 6.4 mph 49 % 0.0 in
14:40 27.7 °F 16.0 °F 1015.8 in East 11.3 mph 12.9 mph 49 % 0.0 in
14:50 27.2 °F 15.9 °F 1015.8 in East 8.0 mph 11.3 mph 50 % 0.0 in
15:00 27.1 °F 15.8 °F 1015.8 in ESE 8.0 mph 12.9 mph 50 % 0.0 in
15:10 26.9 °F 15.9 °F 1016.8 in ESE 9.7 mph 9.7 mph 51 % 0.0 in
15:20 26.9 °F 16.2 °F 1016.8 in ESE 4.8 mph 9.7 mph 52 % 0.0 in
15:30 26.6 °F 15.9 °F 1016.8 in ESE 9.7 mph 12.9 mph 52 % 0.0 in
15:40 26.3 °F 15.9 °F 1016.8 in ESE 8.0 mph 8.0 mph 53 % 0.0 in
15:45 26.1 °F 15.8 °F 1016.8 in ESE 4.8 mph 6.4 mph 53 % 0.0 in
19:20 23.0 °F 16.3 °F 1016.8 in WSW 1.6 mph 4.8 mph 66 % 0.0 in
19:30 23.0 °F 16.3 °F 1017.8 in SW 3.2 mph 4.8 mph 66 % 0.0 in
19:40 22.9 °F 16.2 °F 1017.8 in WSW 1.6 mph 3.2 mph 66 % 0.0 in
19:50 22.8 °F 16.3 °F 1017.8 in WSW 3.2 mph 3.2 mph 67 % 0.0 in
20:00 22.7 °F 16.3 °F 1017.8 in SW 3.2 mph 4.8 mph 67 % 0.0 in
20:10 22.6 °F 16.4 °F 1017.8 in Calm   3.2 mph 68 % 0.0 in
20:20 22.6 °F 16.4 °F 1017.8 in Calm   1.6 mph 68 % 0.0 in
20:30 22.6 °F 16.6 °F 1017.8 in Calm   1.6 mph 69 % 0.0 in
20:40 22.6 °F 16.6 °F 1017.8 in WNW 1.6 mph 3.2 mph 69 % 0.0 in
20:49 26.1 °F 15.8 °F 1016.8 in East 7.4 mph 7.4 mph 53 % 0.0 in
20:50 22.3 °F 16.3 °F 1017.8 in Calm   1.6 mph 69 % 0.0 in
20:54 26.1 °F 15.8 °F 1016.8 in SE 9.0 mph 9.0 mph 53 % 0.0 in
20:59 26.0 °F 15.7 °F 1016.8 in ESE 10.3 mph 10.3 mph 53 % 0.0 in
21:00 22.3 °F 16.6 °F 1017.8 in Calm   3.2 mph 70 % 0.0 in
21:04 25.8 °F 15.5 °F 1016.8 in ESE 9.3 mph 9.3 mph 53 % 0.0 in
21:09 25.7 °F 15.7 °F 1017.8 in SE 7.4 mph 7.6 mph 54 % 0.0 in
21:10 22.4 °F 16.4 °F 1017.8 in WSW 1.6 mph 3.2 mph 69 % 0.0 in
21:14 25.6 °F 15.6 °F 1017.8 in ESE 7.4 mph 7.4 mph 54 % 0.0 in
21:20 25.6 °F 15.6 °F 1017.8 in East 4.8 mph 9.7 mph 54 % 0.0 in
21:25 25.5 °F 15.5 °F 1017.8 in East 7.4 mph 7.4 mph 54 % 0.0 in
21:30 25.5 °F 15.5 °F 1017.8 in East 7.4 mph 7.4 mph 54 % 0.0 in
21:36 25.4 °F 15.7 °F 1017.8 in ENE 5.6 mph 5.6 mph 55 % 0.0 in
21:40 22.4 °F 16.7 °F 1017.8 in SW 1.6 mph 1.6 mph 70 % 0.0 in
21:41 25.3 °F 15.6 °F 1017.8 in SSE 3.7 mph 3.7 mph 55 % 0.0 in
21:46 25.3 °F 15.6 °F 1017.8 in West 2.3 mph   55 % 0.0 in
21:50 22.4 °F 16.7 °F 1017.8 in SW 3.2 mph 3.2 mph 70 % 0.0 in
21:51 25.2 °F 15.5 °F 1017.8 in Calm   1.4 mph 55 % 0.0 in
21:56 25.2 °F 15.5 °F 1017.8 in SW 2.3 mph 2.6 mph 55 % 0.0 in
22:00 22.4 °F 16.7 °F 1017.8 in SW 3.2 mph 4.8 mph 70 % 0.0 in
22:01 25.2 °F 15.5 °F 1017.8 in WSW 3.9 mph 3.9 mph 55 % 0.0 in
22:06 25.1 °F 15.7 °F 1017.8 in WSW 3.7 mph 3.7 mph 56 % 0.0 in
22:10 22.5 °F 16.8 °F 1016.8 in SW 1.6 mph 4.8 mph 70 % 0.0 in
22:11 25.0 °F 15.9 °F 1017.8 in SW 3.7 mph 3.9 mph 57 % 0.0 in
22:16 24.9 °F 16.1 °F 1017.8 in WSW 6.1 mph 6.1 mph 58 % 0.0 in
22:20 22.6 °F 16.8 °F 1016.8 in SW 1.6 mph 3.2 mph 70 % 0.0 in
22:21 24.8 °F 16.2 °F 1017.8 in West 7.4 mph 7.4 mph 59 % 0.0 in
22:26 24.7 °F 16.2 °F 1017.8 in West 5.6 mph 5.6 mph 59 % 0.0 in
22:30 22.6 °F 16.8 °F 1016.8 in SW 1.6 mph 3.2 mph 70 % 0.0 in
22:31 24.6 °F 16.1 °F 1017.8 in SW 5.6 mph 5.6 mph 59 % 0.0 in
22:36 24.5 °F 16.2 °F 1017.8 in WSW 5.6 mph 5.6 mph 60 % 0.0 in
22:40 22.6 °F 16.8 °F 1016.8 in SW 3.2 mph 3.2 mph 70 % 0.0 in
22:41 24.4 °F 16.1 °F 1017.8 in SSE 5.6 mph 5.6 mph 60 % 0.0 in
22:47 24.3 °F 16.1 °F 1017.8 in SW 5.6 mph 5.6 mph 60 % 0.0 in
22:50 22.6 °F 16.8 °F 1016.8 in WSW 1.6 mph 3.2 mph 70 % 0.0 in
22:52 24.2 °F 16.2 °F 1017.8 in SSW 5.0 mph 5.0 mph 61 % 0.0 in
22:57 24.2 °F 16.2 °F 1017.8 in SW 7.4 mph 7.4 mph 61 % 0.0 in
23:00 22.3 °F 16.6 °F 1016.8 in WSW 1.6 mph 3.2 mph 70 % 0.0 in
23:02 24.1 °F 16.1 °F 1017.8 in WSW 4.2 mph 4.2 mph 61 % 0.0 in
23:07 24.0 °F 16.0 °F 1017.8 in SW 4.7 mph 4.7 mph 61 % 0.0 in
23:10 22.2 °F 16.4 °F 1016.8 in SW 3.2 mph 3.2 mph 70 % 0.0 in
23:12 23.9 °F 16.2 °F 1017.8 in SW 5.6 mph 5.6 mph 62 % 0.0 in
23:17 23.9 °F 16.4 °F 1017.8 in SW 5.6 mph 5.6 mph 63 % 0.0 in
23:20 22.1 °F 16.6 °F 1016.8 in Calm   3.2 mph 71 % 0.0 in
23:22 23.8 °F 16.3 °F 1016.8 in WSW 3.7 mph 3.7 mph 63 % 0.0 in
23:27 23.7 °F 16.2 °F 1016.8 in SW 4.2 mph 4.2 mph 63 % 0.0 in
23:30 22.0 °F 16.5 °F 1016.8 in Calm   1.6 mph 71 % 0.0 in
23:32 23.6 °F 16.2 °F 1016.8 in SW 3.7 mph 3.9 mph 63 % 0.0 in
23:37 23.6 °F 16.2 °F 1016.8 in SW 3.7 mph 3.7 mph 63 % 0.0 in
23:40 22.0 °F 16.5 °F 1016.8 in Calm   3.2 mph 71 % 0.0 in
23:42 23.5 °F 16.3 °F 1016.8 in WSW 3.7 mph 3.7 mph 64 % 0.0 in
23:47 23.4 °F 16.2 °F 1016.8 in SW 5.6 mph 5.6 mph 64 % 0.0 in
23:50 21.9 °F 16.6 °F 1016.8 in Calm   1.6 mph 72 % 0.0 in
23:52 23.4 °F 16.2 °F 1017.8 in SW 3.7 mph 3.7 mph 64 % 0.0 in
23:57 23.3 °F 16.1 °F 1017.8 in SW 5.3 mph 5.3 mph 64 % 0.0 in
Meteo Sesrovires
Elogis d' Weather Underground - 1.25 mb

Guio original per  Jim McMurry - jmcmurry@mwt.net Adaptat per a la plantilla per  Wim van der Kuil - Leuven-Template.eu

Trobareu la nostra informacio del temps tambe a:

Weather Underground

AWEKAS